^^
Marion, Virginia Banner
 

Adwolf, VA. Station Historical Data
[ Providing Data Since 6/07/2007 ]
Station Historical Data
Daily Summary for October 13, 2017 Units:  Metric    English   Both
« Previous Day
Next Day »
Daily Weekly Monthly Yearly Custom
  High: Low: Average:
Temperature: 22.7 °C 15.1 °C 18.4 °C
Dew Point: 16.1 °C 13.4 °C 14.8 °C
Humidity: 90% 63% 80%
Wind Speed: 27.8km/h 1.9km/h 14.6km/h
Wind Gust: 27.8km/h - -
Wind- - NE
Pressure: 1023.6 hPa 1020.2 hPa -
Precipitation: 0 mm    
Historical Graphs
 
 
Tabular Data for October 13, 2017
Time Temperature Dew Point Pressure Wind Wind Speed Wind Gust Humidity Rainfall Rate (Hourly) solar Conditions
00:00 18.6 °C 15.4 °C 1020.5 hPa ENE 9.7 km/h 9.7 km/h 82% 0 mm WeatherDisplay:10.37 W/m2 OVC
00:05 18.6 °C 15.4 °C 1020.5 hPa ENE 9.3 km/h 9.3 km/h 82% 0 mm WeatherDisplay:10.37 W/m2 OVC
00:10 18.6 °C 15.4 °C 1020.5 hPa NNE 7.4 km/h 7.4 km/h 82% 0 mm WeatherDisplay:10.37 W/m2 OVC
00:15 18.6 °C 15.4 °C 1020.2 hPa East 5.6 km/h 5.6 km/h 82% 0 mm WeatherDisplay:10.37 W/m2 OVC
00:16 18.6 °C 15.4 °C 1020.2 hPa East 6.4 km/h 6.4 km/h 82% 0 mm WeatherDisplay:10.37 W/m2 OVC
00:21 18.5 °C 15.6 °C 1020.5 hPa NNE 9.3 km/h 9.3 km/h 83% 0 mm WeatherDisplay:10.37 W/m2 OVC
00:26 18.4 °C 15.5 °C 1020.5 hPa NNE 9.7 km/h 9.7 km/h 83% 0 mm WeatherDisplay:10.37 W/m2 OVC
00:31 18.4 °C 15.5 °C 1020.5 hPa East 9.3 km/h 9.3 km/h 83% 0 mm WeatherDisplay:10.37 W/m2 OVC
00:36 18.4 °C 15.5 °C 1020.5 hPa NNE 11.3 km/h 11.3 km/h 83% 0 mm WeatherDisplay:10.37 W/m2 OVC
00:41 18.4 °C 15.5 °C 1020.5 hPa NNE 8 km/h 8 km/h 83% 0 mm WeatherDisplay:10.37 W/m2 OVC
00:46 18.4 °C 15.5 °C 1020.5 hPa East 7.4 km/h 7.4 km/h 83% 0 mm WeatherDisplay:10.37 W/m2 OVC
00:51 18.4 °C 15.4 °C 1020.5 hPa East 9.3 km/h 9.3 km/h 83% 0 mm WeatherDisplay:10.37 W/m2 OVC
00:56 18.3 °C 15.4 °C 1020.5 hPa ENE 9.3 km/h 9.3 km/h 83% 0 mm WeatherDisplay:10.37 W/m2 OVC
01:01 18.3 °C 15.4 °C 1020.5 hPa ENE 13 km/h 13 km/h 83% 0 mm WeatherDisplay:10.37 W/m2 OVC
01:06 18.3 °C 15.4 °C 1020.5 hPa NNE 13 km/h 13 km/h 83% 0 mm WeatherDisplay:10.37 W/m2 OVC
01:11 18.3 °C 15.4 °C 1020.5 hPa NE 17.7 km/h 17.7 km/h 83% 0 mm WeatherDisplay:10.37 W/m2 OVC
01:16 18.3 °C 15.3 °C 1020.5 hPa NE 14.8 km/h 14.8 km/h 83% 0 mm WeatherDisplay:10.37 W/m2 OVC
01:21 18.3 °C 15.3 °C 1020.5 hPa North 16.7 km/h 16.7 km/h 83% 0 mm WeatherDisplay:10.37 W/m2 OVC
01:26 18.3 °C 15.3 °C 1020.5 hPa North 11.3 km/h 11.3 km/h 83% 0 mm WeatherDisplay:10.37 W/m2 -DZ
01:31 18.3 °C 15.3 °C 1020.5 hPa NNE 9.3 km/h 9.3 km/h 83% 0 mm WeatherDisplay:10.37 W/m2 -DZ
01:36 18.2 °C 15.3 °C 1020.5 hPa ENE 14.8 km/h 14.8 km/h 83% 0 mm WeatherDisplay:10.37 W/m2 -DZ
01:41 18.2 °C 15.2 °C 1020.5 hPa East 14.8 km/h 14.8 km/h 83% 0 mm WeatherDisplay:10.37 W/m2 -DZ
01:46 18.1 °C 15.1 °C 1020.9 hPa East 9.3 km/h 9.3 km/h 83% 0 mm WeatherDisplay:10.37 W/m2 OVC
01:51 18.1 °C 15.1 °C 1020.9 hPa NE 11.1 km/h 11.1 km/h 83% 0 mm WeatherDisplay:10.37 W/m2 OVC
01:56 18.1 °C 15.1 °C 1020.9 hPa East 12.9 km/h 12.9 km/h 83% 0 mm WeatherDisplay:10.37 W/m2 OVC
02:01 18 °C 15.1 °C 1020.9 hPa NNE 13 km/h 13 km/h 83% 0 mm WeatherDisplay:10.37 W/m2 OVC
02:06 18.1 °C 15.1 °C 1020.9 hPa SE 13 km/h 13 km/h 83% 0 mm WeatherDisplay:10.37 W/m2 OVC
02:11 18 °C 15.1 °C 1020.9 hPa East 7.4 km/h 7.4 km/h 83% 0 mm WeatherDisplay:10.37 W/m2 OVC
02:16 17.9 °C 14.9 °C 1020.9 hPa East 16.7 km/h 16.7 km/h 83% 0 mm WeatherDisplay:10.37 W/m2 OVC
02:21 17.8 °C 14.8 °C 1020.9 hPa ENE 16.7 km/h 16.7 km/h 83% 0 mm WeatherDisplay:10.37 W/m2 OVC
02:26 17.8 °C 14.8 °C 1020.9 hPa NNE 7.4 km/h 7.4 km/h 83% 0 mm WeatherDisplay:10.37 W/m2 OVC
02:31 17.7 °C 15 °C 1020.9 hPa North 14.8 km/h 14.8 km/h 84% 0 mm WeatherDisplay:10.37 W/m2 OVC
02:36 17.6 °C 14.9 °C 1020.9 hPa NE 8 km/h 8 km/h 84% 0 mm WeatherDisplay:10.37 W/m2 OVC
02:41 17.6 °C 14.9 °C 1020.9 hPa NE 11.3 km/h 11.3 km/h 84% 0 mm WeatherDisplay:10.37 W/m2 OVC
02:46 17.5 °C 14.8 °C 1020.9 hPa NE 8 km/h 8 km/h 84% 0 mm WeatherDisplay:10.37 W/m2 OVC
02:51 17.4 °C 14.7 °C 1020.9 hPa East 11.1 km/h 11.1 km/h 84% 0 mm WeatherDisplay:10.37 W/m2 OVC
02:56 17.4 °C 14.7 °C 1020.9 hPa NNE 11.1 km/h 11.1 km/h 84% 0 mm WeatherDisplay:10.37 W/m2 OVC
03:01 17.4 °C 14.9 °C 1020.9 hPa East 16.7 km/h 16.7 km/h 85% 0 mm WeatherDisplay:10.37 W/m2 OVC
03:06 17.4 °C 14.7 °C 1020.9 hPa NE 17.7 km/h 17.7 km/h 84% 0 mm WeatherDisplay:10.37 W/m2 OVC
03:11 17.4 °C 14.7 °C 1020.9 hPa ENE 18.5 km/h 18.5 km/h 84% 0 mm WeatherDisplay:10.37 W/m2 OVC
03:16 17.4 °C 14.7 °C 1020.9 hPa North 13 km/h 13 km/h 84% 0 mm WeatherDisplay:10.37 W/m2 OVC
03:21 17.4 °C 14.7 °C 1020.9 hPa NNE 14.8 km/h 14.8 km/h 84% 0 mm WeatherDisplay:10.37 W/m2 OVC
03:26 17.3 °C 14.7 °C 1020.9 hPa ENE 14.8 km/h 14.8 km/h 85% 0 mm WeatherDisplay:10.37 W/m2 OVC
03:31 17.2 °C 14.6 °C 1020.9 hPa NE 14.8 km/h 14.8 km/h 85% 0 mm WeatherDisplay:10.37 W/m2 OVC
03:36 17.1 °C 14.7 °C 1020.9 hPa East 9.3 km/h 9.3 km/h 86% 0 mm WeatherDisplay:10.37 W/m2 OVC
03:41 17.1 °C 14.7 °C 1020.9 hPa NE 11.1 km/h 11.1 km/h 86% 0 mm WeatherDisplay:10.37 W/m2 OVC
03:46 17 °C 14.7 °C 1020.9 hPa NE 16.7 km/h 16.7 km/h 86% 0 mm WeatherDisplay:10.37 W/m2 OVC
03:51 17 °C 14.7 °C 1021.2 hPa NNE 14.5 km/h 14.5 km/h 86% 0 mm WeatherDisplay:10.37 W/m2 OVC
03:56 16.9 °C 14.6 °C 1020.9 hPa NNE 16.7 km/h 16.7 km/h 86% 0 mm WeatherDisplay:10.37 W/m2 OVC
04:01 17 °C 14.6 °C 1021.2 hPa NE 9.7 km/h 16.1 km/h 86% 0 mm WeatherDisplay:10.37 W/m2 OVC
04:06 16.8 °C 14.5 °C 1020.9 hPa NE 16.7 km/h 16.7 km/h 86% 0 mm WeatherDisplay:10.37 W/m2 OVC
04:11 16.8 °C 14.5 °C 1020.9 hPa NNE 14.5 km/h 14.5 km/h 86% 0 mm WeatherDisplay:10.37 W/m2 OVC
04:16 16.9 °C 14.6 °C 1020.9 hPa NNE 13 km/h 13 km/h 86% 0 mm WeatherDisplay:10.37 W/m2 OVC
04:21 16.8 °C 14.6 °C 1020.9 hPa ENE 9.7 km/h 9.7 km/h 87% 0 mm WeatherDisplay:10.37 W/m2 OVC
04:26 16.8 °C 14.6 °C 1020.9 hPa NE 16.7 km/h 16.7 km/h 87% 0 mm WeatherDisplay:10.37 W/m2 OVC
04:31 16.8 °C 14.6 °C 1020.9 hPa NNE 16.7 km/h 16.7 km/h 87% 0 mm WeatherDisplay:10.37 W/m2 OVC
04:36 16.8 °C 14.6 °C 1020.9 hPa NNE 16.7 km/h 16.7 km/h 87% 0 mm WeatherDisplay:10.37 W/m2 OVC
04:41 16.7 °C 14.5 °C 1020.9 hPa NE 14.8 km/h 14.8 km/h 87% 0 mm WeatherDisplay:10.37 W/m2 OVC
04:46 16.7 °C 14.5 °C 1021.2 hPa NE 18.5 km/h 18.5 km/h 87% 0 mm WeatherDisplay:10.37 W/m2 OVC
04:51 16.6 °C 14.4 °C 1020.9 hPa NNE 14.8 km/h 14.8 km/h 87% 0 mm WeatherDisplay:10.37 W/m2 OVC
04:56 16.6 °C 14.4 °C 1020.9 hPa NE 18.5 km/h 18.5 km/h 87% 0 mm WeatherDisplay:10.37 W/m2 OVC
05:01 16.5 °C 14.5 °C 1020.9 hPa NNE 18.5 km/h 18.5 km/h 88% 0 mm WeatherDisplay:10.37 W/m2 OVC
05:06 16.4 °C 14.4 °C 1021.2 hPa NE 16.7 km/h 16.7 km/h 88% 0 mm WeatherDisplay:10.37 W/m2 OVC
05:11 16.4 °C 14.4 °C 1021.2 hPa North 16.7 km/h 16.7 km/h 88% 0 mm WeatherDisplay:10.37 W/m2 OVC
05:16 16.4 °C 14.4 °C 1021.2 hPa NNE 16.7 km/h 16.7 km/h 88% 0 mm WeatherDisplay:10.37 W/m2 OVC
05:21 16.4 °C 14.4 °C 1021.2 hPa NE 20.4 km/h 20.4 km/h 88% 0 mm WeatherDisplay:10.37 W/m2 OVC
05:26 16.4 °C 14.4 °C 1021.2 hPa NNE 16.7 km/h 16.7 km/h 88% 0 mm WeatherDisplay:10.37 W/m2 OVC
05:31 16.3 °C 14.3 °C 1021.2 hPa NNW 13 km/h 13 km/h 88% 0 mm WeatherDisplay:10.37 W/m2 OVC
05:36 16.3 °C 14.3 °C 1021.6 hPa NNE 17.7 km/h 17.7 km/h 88% 0 mm WeatherDisplay:10.37 W/m2 OVC
05:41 16.3 °C 14.3 °C 1021.6 hPa NNE 16.7 km/h 16.7 km/h 88% 0 mm WeatherDisplay:10.37 W/m2 OVC
05:46 16.3 °C 14.3 °C 1021.6 hPa NNE 16.7 km/h 16.7 km/h 88% 0 mm WeatherDisplay:10.37 W/m2 OVC
05:51 16.2 °C 14.4 °C 1021.6 hPa NNE 14.8 km/h 14.8 km/h 89% 0 mm WeatherDisplay:10.37 W/m2 OVC
05:56 16.2 °C 14.3 °C 1021.6 hPa NNE 16.7 km/h 16.7 km/h 89% 0 mm WeatherDisplay:10.37 W/m2 OVC
06:01 16.2 °C 14.3 °C 1021.9 hPa NE 13 km/h 13 km/h 89% 0 mm WeatherDisplay:10.37 W/m2 OVC
06:06 16.2 °C 14.3 °C 1021.9 hPa NNE 14.8 km/h 14.8 km/h 89% 0 mm WeatherDisplay:10.37 W/m2 OVC
06:11 16.2 °C 14.4 °C 1021.9 hPa NE 16.7 km/h 16.7 km/h 89% 0 mm WeatherDisplay:10.37 W/m2 OVC
06:16 16.2 °C 14.3 °C 1021.9 hPa NNE 14.8 km/h 14.8 km/h 89% 0 mm WeatherDisplay:10.37 W/m2 OVC
06:21 16.1 °C 14.3 °C 1021.9 hPa NNE 20.4 km/h 20.4 km/h 89% 0 mm WeatherDisplay:10.37 W/m2 OVC
06:26 16.1 °C 14.2 °C 1021.9 hPa NNE 20.4 km/h 20.4 km/h 89% 0 mm WeatherDisplay:10.37 W/m2 OVC
06:31 16 °C 14.2 °C 1021.9 hPa NE 20.4 km/h 20.4 km/h 89% 0 mm WeatherDisplay:10.37 W/m2 OVC
06:36 15.9 °C 14.1 °C 1021.9 hPa NNE 18.5 km/h 18.5 km/h 89% 0 mm WeatherDisplay:10.37 W/m2 OVC
06:41 15.9 °C 14.1 °C 1022.2 hPa NNE 16.7 km/h 16.7 km/h 89% 0 mm WeatherDisplay:10.37 W/m2 OVC
06:46 15.8 °C 14.2 °C 1022.2 hPa NE 16.7 km/h 16.7 km/h 90% 0 mm WeatherDisplay:10.37 W/m2 OVC
06:51 15.8 °C 14.2 °C 1022.2 hPa NE 13 km/h 13 km/h 90% 0 mm WeatherDisplay:10.37 W/m2 OVC
06:56 15.9 °C 14.3 °C 1022.2 hPa NE 16.7 km/h 16.7 km/h 90% 0 mm WeatherDisplay:10.37 W/m2 OVC
07:01 15.9 °C 14.1 °C 1022.2 hPa North 19.3 km/h 19.3 km/h 89% 0 mm WeatherDisplay:10.37 W/m2 OVC
07:06 15.9 °C 14.1 °C 1022.2 hPa NNW 18.5 km/h 18.5 km/h 89% 0 mm WeatherDisplay:10.37 W/m2 OVC
07:11 15.9 °C 14.1 °C 1022.2 hPa NNE 14.8 km/h 14.8 km/h 89% 0 mm WeatherDisplay:10.37 W/m2 OVC
07:16 15.9 °C 14.1 °C 1022.2 hPa NNE 22.2 km/h 22.2 km/h 89% 0 mm WeatherDisplay:10.37 W/m2 OVC
07:21 15.9 °C 14.1 °C 1022.2 hPa NE 22.2 km/h 22.2 km/h 89% 0 mm WeatherDisplay:10.37 W/m2 OVC
07:26 15.8 °C 14 °C 1022.2 hPa NE 20.4 km/h 20.4 km/h 89% 0 mm WeatherDisplay:10.37 W/m2 OVC
07:31 15.8 °C 14 °C 1022.2 hPa NE 20.4 km/h 20.4 km/h 89% 0 mm WeatherDisplay:10.37 W/m2 OVC
07:36 15.8 °C 13.9 °C 1022.2 hPa NE 18.5 km/h 18.5 km/h 89% 0 mm WeatherDisplay:10.37 W/m2 OVC
07:41 15.8 °C 13.9 °C 1022.2 hPa NNE 18.5 km/h 18.5 km/h 89% 0 mm WeatherDisplay:10.37 W/m2 OVC
07:46 15.7 °C 13.9 °C 1022.2 hPa NNE 16.7 km/h 16.7 km/h 89% 0 mm WeatherDisplay:10.37 W/m2 OVC
07:51 15.6 °C 13.8 °C 1022.6 hPa NNE 16.7 km/h 16.7 km/h 89% 0 mm WeatherDisplay:10.37 W/m2 OVC
07:56 15.6 °C 14 °C 1022.6 hPa NNE 16.7 km/h 16.7 km/h 90% 0 mm WeatherDisplay:10.37 W/m2 OVC
08:01 15.6 °C 13.9 °C 1022.6 hPa NNE 18.5 km/h 18.5 km/h 90% 0 mm WeatherDisplay:10.37 W/m2 OVC
08:06 15.5 °C 13.9 °C 1022.6 hPa NNE 18.5 km/h 18.5 km/h 90% 0 mm WeatherDisplay:10.37 W/m2 OVC
08:11 15.5 °C 13.9 °C 1022.6 hPa NE 16.7 km/h 16.7 km/h 90% 0 mm WeatherDisplay:10.37 W/m2 OVC
08:16 15.5 °C 13.9 °C 1022.9 hPa NNE 16.7 km/h 16.7 km/h 90% 0 mm WeatherDisplay:10.37 W/m2 OVC
08:21 15.5 °C 13.9 °C 1022.9 hPa NNE 22.5 km/h 22.5 km/h 90% 0 mm WeatherDisplay:10.37 W/m2 OVC
08:26 15.5 °C 13.9 °C 1022.9 hPa NNE 20.4 km/h 20.4 km/h 90% 0 mm WeatherDisplay:10.37 W/m2 OVC
08:31 15.5 °C 13.9 °C 1022.9 hPa NNE 20.4 km/h 20.4 km/h 90% 0 mm WeatherDisplay:10.37 W/m2 OVC
08:36 15.6 °C 13.9 °C 1022.9 hPa NNE 18.5 km/h 18.5 km/h 90% 0 mm WeatherDisplay:10.37 W/m2 OVC
08:41 15.6 °C 14 °C 1022.9 hPa NE 13 km/h 13 km/h 90% 0 mm WeatherDisplay:10.37 W/m2 OVC
08:46 15.7 °C 14.1 °C 1022.9 hPa NNE 14.8 km/h 14.8 km/h 90% 0 mm WeatherDisplay:10.37 W/m2 OVC
08:51 15.8 °C 14 °C 1022.9 hPa NNE 14.8 km/h 14.8 km/h 89% 0 mm WeatherDisplay:10.37 W/m2 OVC
08:56 15.9 °C 14.1 °C 1023.2 hPa NNE 14.8 km/h 14.8 km/h 89% 0 mm WeatherDisplay:10.37 W/m2 OVC
09:01 16 °C 14.2 °C 1023.2 hPa NNE 16.7 km/h 16.7 km/h 89% 0 mm WeatherDisplay:10.37 W/m2 OVC
09:06 16.1 °C 14.2 °C 1023.2 hPa NNE 18.5 km/h 18.5 km/h 89% 0 mm WeatherDisplay:10.37 W/m2 OVC
09:11 16.2 °C 14.3 °C 1023.2 hPa NNE 16.7 km/h 16.7 km/h 89% 0 mm WeatherDisplay:10.37 W/m2 OVC
09:16 16.4 °C 14.4 °C 1023.2 hPa NNE 14.8 km/h 14.8 km/h 88% 0 mm WeatherDisplay:10.37 W/m2 OVC
09:21 16.5 °C 14.5 °C 1023.2 hPa NNE 18.5 km/h 18.5 km/h 88% 0 mm WeatherDisplay:10.37 W/m2 OVC
09:26 16.6 °C 14.4 °C 1023.2 hPa ENE 18.5 km/h 18.5 km/h 87% 0 mm WeatherDisplay:10.37 W/m2 OVC
09:27 16.6 °C 14.4 °C 1023.6 hPa NNE 18.5 km/h 18.5 km/h 87% 0 mm WeatherDisplay:10.37 W/m2 OVC
09:32 16.8 °C 14.6 °C 1023.6 hPa NNE 18.5 km/h 18.5 km/h 87% 0 mm WeatherDisplay:10.37 W/m2 OVC
09:37 16.9 °C 14.6 °C 1023.6 hPa North 18.5 km/h 18.5 km/h 86% 0 mm WeatherDisplay:10.37 W/m2 OVC
09:42 16.9 °C 14.6 °C 1023.6 hPa NNE 18.5 km/h 18.5 km/h 86% 0 mm WeatherDisplay:10.37 W/m2 OVC
09:47 17.2 °C 14.8 °C 1023.6 hPa NNE 11.1 km/h 11.1 km/h 86% 0 mm WeatherDisplay:10.37 W/m2 OVC
09:52 17.4 °C 15 °C 1023.6 hPa NNE 16.7 km/h 16.7 km/h 86% 0 mm WeatherDisplay:10.37 W/m2 OVC
09:57 17.7 °C 15 °C 1023.6 hPa NNE 16.7 km/h 16.7 km/h 84% 0 mm WeatherDisplay:10.37 W/m2 OVC
10:02 17.8 °C 15.1 °C 1023.6 hPa NNE 14.5 km/h 14.5 km/h 84% 0 mm WeatherDisplay:10.37 W/m2 OVC
10:07 18 °C 15.1 °C 1023.6 hPa NNE 14.8 km/h 14.8 km/h 83% 0 mm WeatherDisplay:10.37 W/m2 OVC
10:12 18.2 °C 15.1 °C 1023.6 hPa North 14.8 km/h 14.8 km/h 82% 0 mm WeatherDisplay:10.37 W/m2 OVC
10:17 18.3 °C 15.2 °C 1023.6 hPa NNE 18.5 km/h 18.5 km/h 82% 0 mm WeatherDisplay:10.37 W/m2 OVC
10:22 18.4 °C 15.3 °C 1023.6 hPa NE 16.7 km/h 16.7 km/h 82% 0 mm WeatherDisplay:10.37 W/m2 OVC
10:27 18.6 °C 15.2 °C 1023.6 hPa NNE 18.5 km/h 18.5 km/h 81% 0 mm WeatherDisplay:10.37 W/m2 OVC
10:32 18.7 °C 15.2 °C 1023.6 hPa NNE 18.5 km/h 18.5 km/h 80% 0 mm WeatherDisplay:10.37 W/m2 OVC
10:37 18.7 °C 15.4 °C 1023.6 hPa NNE 20.4 km/h 20.4 km/h 81% 0 mm WeatherDisplay:10.37 W/m2 OVC
10:42 18.8 °C 15.1 °C 1023.6 hPa ENE 20.4 km/h 20.4 km/h 79% 0 mm WeatherDisplay:10.37 W/m2 OVC
10:47 19 °C 15.3 °C 1023.6 hPa NE 14.8 km/h 14.8 km/h 79% 0 mm WeatherDisplay:10.37 W/m2 OVC
10:52 19 °C 15.3 °C 1023.6 hPa NNE 18.5 km/h 18.5 km/h 79% 0 mm WeatherDisplay:10.37 W/m2 OVC
10:57 19.2 °C 15.4 °C 1023.6 hPa NE 19.3 km/h 19.3 km/h 79% 0 mm WeatherDisplay:10.37 W/m2 OVC
11:02 19.3 °C 15.3 °C 1023.6 hPa NNE 20.4 km/h 20.4 km/h 78% 0 mm WeatherDisplay:10.37 W/m2 OVC
11:07 19.3 °C 15.4 °C 1023.6 hPa NNE 22.5 km/h 22.5 km/h 78% 0 mm WeatherDisplay:10.37 W/m2 OVC
11:12 19.3 °C 15.4 °C 1023.6 hPa NNE 20.4 km/h 20.4 km/h 78% 0 mm WeatherDisplay:10.37 W/m2 OVC
11:17 19.6 °C 15.4 °C 1023.6 hPa NNE 14.5 km/h 18.5 km/h 77% 0 mm WeatherDisplay:10.37 W/m2 OVC
11:22 19.3 °C 15.2 °C 1023.6 hPa NE 27.8 km/h 27.8 km/h 77% 0 mm WeatherDisplay:10.37 W/m2 OVC
11:27 19.6 °C 15.6 °C 1023.6 hPa NNE 22.2 km/h 22.2 km/h 78% 0 mm WeatherDisplay:10.37 W/m2 OVC
11:32 19.8 °C 15.4 °C 1023.6 hPa NNE 16.7 km/h 16.7 km/h 76% 0 mm WeatherDisplay:10.37 W/m2 OVC
11:37 19.8 °C 15.4 °C 1023.6 hPa North 22.2 km/h 22.2 km/h 76% 0 mm WeatherDisplay:10.37 W/m2 OVC
11:42 20.1 °C 15.5 °C 1023.6 hPa ENE 16.7 km/h 16.7 km/h 75% 0 mm WeatherDisplay:10.37 W/m2 OVC
11:47 19.9 °C 15.4 °C 1023.2 hPa NE 22.2 km/h 22.2 km/h 75% 0 mm WeatherDisplay:10.37 W/m2 OVC
11:52 20 °C 15.4 °C 1023.2 hPa North 16.7 km/h 16.7 km/h 75% 0 mm WeatherDisplay:10.37 W/m2 OVC
11:53 19.9 °C 15.2 °C 1023.2 hPa NNE 22.5 km/h 22.5 km/h 74% 0 mm WeatherDisplay:10.37 W/m2 OVC
11:58 20 °C 15.4 °C 1023.2 hPa NNE 16.7 km/h 16.7 km/h 75% 0 mm WeatherDisplay:10.37 W/m2 OVC
12:03 20.1 °C 15.6 °C 1023.2 hPa North 19.3 km/h 19.3 km/h 75% 0 mm WeatherDisplay:10.37 W/m2 OVC
12:08 20.3 °C 15.6 °C 1023.2 hPa NNE 16.7 km/h 16.7 km/h 74% 0 mm WeatherDisplay:10.37 W/m2 OVC
12:13 20.5 °C 15.5 °C 1023.2 hPa NNE 18.5 km/h 18.5 km/h 73% 0 mm WeatherDisplay:10.37 W/m2 OVC
12:18 20.6 °C 15.6 °C 1023.2 hPa North 18.5 km/h 18.5 km/h 73% 0 mm WeatherDisplay:10.37 W/m2 OVC
12:23 20.7 °C 15.5 °C 1023.2 hPa North 20.4 km/h 20.4 km/h 72% 0 mm WeatherDisplay:10.37 W/m2 OVC
12:28 20.7 °C 15.7 °C 1023.2 hPa NNE 18.5 km/h 18.5 km/h 73% 0 mm WeatherDisplay:10.37 W/m2 OVC
12:33 20.9 °C 15.7 °C 1023.2 hPa NNE 20.9 km/h 20.9 km/h 72% 0 mm WeatherDisplay:10.37 W/m2 OVC
12:38 20.8 °C 15.6 °C 1022.9 hPa North 20.4 km/h 20.4 km/h 72% 0 mm WeatherDisplay:10.37 W/m2 OVC
12:43 20.6 °C 15.3 °C 1022.9 hPa NE 19.3 km/h 19.3 km/h 72% 0 mm WeatherDisplay:10.37 W/m2 OVC
12:48 20.6 °C 15.3 °C 1022.9 hPa North 18.5 km/h 18.5 km/h 72% 0 mm WeatherDisplay:10.37 W/m2 OVC
12:53 20.7 °C 15.7 °C 1022.6 hPa ENE 16.7 km/h 16.7 km/h 73% 0 mm WeatherDisplay:10.37 W/m2 OVC
12:58 20.9 °C 15.7 °C 1022.6 hPa NNE 14.8 km/h 14.8 km/h 72% 0 mm WeatherDisplay:10.37 W/m2 OVC
13:03 21.3 °C 15.6 °C 1022.6 hPa NNE 18.5 km/h 18.5 km/h 70% 0 mm WeatherDisplay:10.37 W/m2 OVC
13:04 21.4 °C 15.7 °C 1022.6 hPa ENE 18.5 km/h 18.5 km/h 70% 0 mm WeatherDisplay:10.37 W/m2 OVC
13:09 21.7 °C 16 °C 1022.6 hPa NNE 18.5 km/h 18.5 km/h 70% 0 mm WeatherDisplay:10.37 W/m2 OVC
13:14 21.7 °C 15.8 °C 1022.6 hPa NNE 19.3 km/h 19.3 km/h 69% 0 mm WeatherDisplay:10.37 W/m2 OVC
13:19 21.7 °C 16 °C 1022.2 hPa NNE 20.9 km/h 20.9 km/h 70% 0 mm WeatherDisplay:10.37 W/m2 OVC
13:24 21.7 °C 16 °C 1022.2 hPa NNE 18.5 km/h 18.5 km/h 70% 0 mm WeatherDisplay:10.37 W/m2 OVC
13:29 21.7 °C 15.7 °C 1022.2 hPa NNE 19.3 km/h 19.3 km/h 69% 0 mm WeatherDisplay:10.37 W/m2 OVC
13:34 22.1 °C 16.1 °C 1022.2 hPa NNE 14.5 km/h 14.5 km/h 69% 0 mm WeatherDisplay:10.37 W/m2 OVC
13:39 22.1 °C 15.9 °C 1022.2 hPa NNW 18.5 km/h 18.5 km/h 68% 0 mm WeatherDisplay:10.37 W/m2 OVC
13:44 22.2 °C 15.7 °C 1021.9 hPa NNE 14.5 km/h 14.5 km/h 67% 0 mm WeatherDisplay:10.37 W/m2 OVC
13:49 22.2 °C 16 °C 1021.9 hPa ENE 16.7 km/h 16.7 km/h 68% 0 mm WeatherDisplay:10.37 W/m2 OVC
13:54 22.3 °C 15.9 °C 1021.9 hPa NNE 22.5 km/h 22.5 km/h 67% 0 mm WeatherDisplay:10.37 W/m2 OVC
13:59 22.3 °C 15.9 °C 1021.9 hPa NNE 14.8 km/h 14.8 km/h 67% 0 mm WeatherDisplay:10.37 W/m2 OVC
14:04 22.2 °C 15.8 °C 1021.9 hPa NNE 20.4 km/h 20.4 km/h 67% 0 mm WeatherDisplay:10.37 W/m2 OVC
14:09 22.2 °C 16 °C 1021.9 hPa NE 20.4 km/h 20.4 km/h 68% 0 mm WeatherDisplay:10.37 W/m2 OVC
14:14 21.9 °C 15.6 °C 1021.6 hPa NNE 19.3 km/h 19.3 km/h 67% 0 mm WeatherDisplay:10.37 W/m2 OVC
14:19 21.9 °C 15.8 °C 1021.6 hPa NNE 18.5 km/h 18.5 km/h 68% 0 mm WeatherDisplay:10.37 W/m2 OVC
14:24 22.2 °C 15.8 °C 1021.6 hPa NNE 16.7 km/h 16.7 km/h 67% 0 mm WeatherDisplay:10.37 W/m2 OVC
14:29 22.2 °C 15.8 °C 1021.6 hPa NNE 16.7 km/h 16.7 km/h 67% 0 mm WeatherDisplay:10.37 W/m2 OVC
14:34 22.4 °C 16 °C 1021.6 hPa North 16.1 km/h 16.1 km/h 67% 0 mm WeatherDisplay:10.37 W/m2 OVC
14:39 22.2 °C 15.8 °C 1021.6 hPa NNE 16.7 km/h 16.7 km/h 67% 0 mm WeatherDisplay:10.37 W/m2 OVC
14:44 22.2 °C 15.8 °C 1021.6 hPa NNW 22.5 km/h 22.5 km/h 67% 0 mm WeatherDisplay:10.37 W/m2 OVC
14:49 22.1 °C 15.7 °C 1021.6 hPa NNE 22.2 km/h 22.2 km/h 67% 0 mm WeatherDisplay:10.37 W/m2 OVC
14:54 22.3 °C 15.9 °C 1021.6 hPa North 22.2 km/h 22.2 km/h 67% 0 mm WeatherDisplay:10.37 W/m2 OVC
14:55 22.3 °C 15.9 °C 1021.6 hPa North 22.2 km/h 22.2 km/h 67% 0 mm WeatherDisplay:10.37 W/m2 OVC
15:00 22.5 °C 15.6 °C 1021.6 hPa East 14.8 km/h 14.8 km/h 65% 0 mm WeatherDisplay:10.37 W/m2 OVC
15:02 22.4 °C 15.8 °C 1021.6 hPa North 16.7 km/h 16.7 km/h 66% 0 mm WeatherDisplay:10.37 W/m2 OVC
15:07 22.3 °C 15.7 °C 1021.6 hPa ENE 18.5 km/h 18.5 km/h 66% 0 mm WeatherDisplay:10.37 W/m2 OVC
15:12 22.6 °C 15.7 °C 1021.6 hPa NNE 18.5 km/h 18.5 km/h 65% 0 mm WeatherDisplay:10.37 W/m2 OVC
15:17 22.7 °C 15.7 °C 1021.6 hPa NNE 18.5 km/h 18.5 km/h 65% 0 mm WeatherDisplay:10.37 W/m2 OVC
15:22 22.6 °C 15.7 °C 1021.6 hPa NE 18.5 km/h 18.5 km/h 65% 0 mm WeatherDisplay:10.37 W/m2 OVC
15:27 22.6 °C 15.7 °C 1021.6 hPa NNE 18.5 km/h 18.5 km/h 65% 0 mm WeatherDisplay:10.37 W/m2 OVC
15:32 22.6 °C 15.9 °C 1021.6 hPa NNE 16.7 km/h 16.7 km/h 66% 0 mm WeatherDisplay:10.37 W/m2 OVC
15:37 22.5 °C 15.6 °C 1021.6 hPa NNE 18.5 km/h 18.5 km/h 65% 0 mm WeatherDisplay:10.37 W/m2 OVC
15:42 22.6 °C 15.7 °C 1021.6 hPa ENE 9.7 km/h 9.7 km/h 65% 0 mm WeatherDisplay:10.37 W/m2 OVC
15:47 22.7 °C 15.5 °C 1021.6 hPa NNE 16.7 km/h 16.7 km/h 64% 0 mm WeatherDisplay:10.37 W/m2 OVC
15:52 22.7 °C 15.5 °C 1021.6 hPa NE 16.7 km/h 16.7 km/h 64% 0 mm WeatherDisplay:10.37 W/m2 OVC
15:57 22.7 °C 15.8 °C 1021.6 hPa NNE 11.1 km/h 11.1 km/h 65% 0 mm WeatherDisplay:10.37 W/m2 OVC
16:02 22.7 °C 15.5 °C 1021.6 hPa NE 11.1 km/h 11.1 km/h 64% 0 mm WeatherDisplay:10.37 W/m2 OVC
16:07 22.6 °C 15.2 °C 1021.6 hPa NNE 20.9 km/h 20.9 km/h 63% 0 mm WeatherDisplay:10.37 W/m2 OVC
16:12 22.2 °C 15.6 °C 1021.6 hPa North 18.5 km/h 18.5 km/h 66% 0 mm WeatherDisplay:10.37 W/m2 OVC
16:17 22.3 °C 15.6 °C 1021.6 hPa NNE 18.5 km/h 18.5 km/h 66% 0 mm WeatherDisplay:10.37 W/m2 OVC
16:22 22.4 °C 15.3 °C 1021.6 hPa NE 18.5 km/h 18.5 km/h 64% 0 mm WeatherDisplay:10.37 W/m2 OVC
16:27 22.4 °C 15.7 °C 1021.6 hPa NE 18.5 km/h 18.5 km/h 66% 0 mm WeatherDisplay:10.37 W/m2 OVC
16:32 22.6 °C 15.7 °C 1021.6 hPa East 18.5 km/h 18.5 km/h 65% 0 mm WeatherDisplay:10.37 W/m2 OVC
16:37 22.6 °C 15.7 °C 1021.6 hPa NNE 14.8 km/h 14.8 km/h 65% 0 mm WeatherDisplay:10.37 W/m2 OVC
16:42 22.7 °C 15.8 °C 1021.6 hPa North 14.8 km/h 14.8 km/h 65% 0 mm WeatherDisplay:10.37 W/m2 OVC
16:47 22.4 °C 15.2 °C 1021.6 hPa ENE 19.3 km/h 19.3 km/h 64% 0 mm WeatherDisplay:10.37 W/m2 OVC
16:48 22.4 °C 15.2 °C 1021.6 hPa ENE 18.5 km/h 18.5 km/h 64% 0 mm WeatherDisplay:10.37 W/m2 OVC
16:53 22.2 °C 15.3 °C 1021.6 hPa NNE 16.7 km/h 16.7 km/h 65% 0 mm WeatherDisplay:10.37 W/m2 OVC
16:58 22.1 °C 15.4 °C 1021.6 hPa NNE 20.9 km/h 20.9 km/h 66% 0 mm WeatherDisplay:10.37 W/m2 OVC
17:03 21.9 °C 15.3 °C 1021.6 hPa NE 20.4 km/h 20.4 km/h 66% 0 mm WeatherDisplay:10.37 W/m2 OVC
17:08 21.8 °C 15.4 °C 1021.6 hPa NNE 17.7 km/h 17.7 km/h 67% 0 mm WeatherDisplay:10.37 W/m2 OVC
17:13 21.7 °C 15.3 °C 1021.6 hPa North 17.7 km/h 17.7 km/h 67% 0 mm WeatherDisplay:10.37 W/m2 OVC
17:18 21.6 °C 15.4 °C 1021.6 hPa NE 18.5 km/h 18.5 km/h 68% 0 mm WeatherDisplay:10.37 W/m2 OVC
17:23 21.5 °C 15.1 °C 1021.6 hPa NE 17.7 km/h 17.7 km/h 67% 0 mm WeatherDisplay:10.37 W/m2 OVC
17:28 21.4 °C 15.3 °C 1021.6 hPa NNE 14.8 km/h 14.8 km/h 68% 0 mm WeatherDisplay:10.37 W/m2 OVC
17:33 21.3 °C 15.2 °C 1021.6 hPa NE 16.7 km/h 16.7 km/h 68% 0 mm WeatherDisplay:10.37 W/m2 OVC
17:38 21.3 °C 15.3 °C 1021.6 hPa NNE 13 km/h 13 km/h 69% 0 mm WeatherDisplay:10.37 W/m2 OVC
17:43 21.2 °C 15.3 °C 1021.6 hPa NNE 14.8 km/h 14.8 km/h 69% 0 mm WeatherDisplay:10.37 W/m2 OVC
17:48 21.1 °C 15.2 °C 1021.6 hPa NNE 11.1 km/h 11.1 km/h 69% 0 mm WeatherDisplay:10.37 W/m2 OVC
17:49 21.1 °C 15.2 °C 1021.6 hPa NNE 11.1 km/h 11.1 km/h 69% 0 mm WeatherDisplay:10.37 W/m2 OVC
17:54 20.9 °C 15.3 °C 1021.6 hPa East 14.5 km/h 14.5 km/h 70% 0 mm WeatherDisplay:10.37 W/m2 OVC
17:59 20.8 °C 15.2 °C 1021.6 hPa East 11.1 km/h 11.1 km/h 70% 0 mm WeatherDisplay:10.37 W/m2 OVC
18:04 20.7 °C 15.3 °C 1021.6 hPa NNE 14.8 km/h 14.8 km/h 71% 0 mm WeatherDisplay:10.37 W/m2 OVC
18:09 20.6 °C 15.2 °C 1021.6 hPa NE 9.3 km/h 9.3 km/h 71% 0 mm WeatherDisplay:10.37 W/m2 OVC
18:14 20.4 °C 14.9 °C 1021.6 hPa North 9.3 km/h 9.3 km/h 71% 0 mm WeatherDisplay:10.37 W/m2 OVC
18:19 20.2 °C 15 °C 1021.6 hPa ENE 8 km/h 8 km/h 72% 0 mm WeatherDisplay:10.37 W/m2 OVC
18:24 20.1 °C 14.8 °C 1021.6 hPa NNE 9.3 km/h 9.3 km/h 72% 0 mm WeatherDisplay:10.37 W/m2 OVC
18:29 19.8 °C 14.8 °C 1021.9 hPa NNE 11.1 km/h 11.1 km/h 73% 0 mm WeatherDisplay:10.37 W/m2 OVC
18:34 19.6 °C 14.8 °C 1021.9 hPa NNE 9.3 km/h 9.3 km/h 74% 0 mm WeatherDisplay:10.37 W/m2 OVC
18:39 19.3 °C 14.7 °C 1021.9 hPa NNE 9.3 km/h 9.3 km/h 75% 0 mm WeatherDisplay:10.37 W/m2 OVC
18:44 19.1 °C 14.5 °C 1021.9 hPa NNE 7.4 km/h 7.4 km/h 75% 0 mm WeatherDisplay:10.37 W/m2 OVC
18:49 18.8 °C 14.5 °C 1021.9 hPa NNE 9.3 km/h 9.3 km/h 76% 0 mm WeatherDisplay:10.37 W/m2 OVC
18:54 18.7 °C 14.6 °C 1021.9 hPa North 7.4 km/h 7.4 km/h 77% 0 mm WeatherDisplay:10.37 W/m2 OVC
18:59 18.5 °C 14.4 °C 1021.9 hPa North 13 km/h 13 km/h 77% 0 mm WeatherDisplay:10.37 W/m2 OVC
19:04 18.4 °C 14.3 °C 1021.9 hPa NNE 11.1 km/h 11.1 km/h 77% 0 mm WeatherDisplay:10.37 W/m2 OVC
19:09 18.3 °C 14.4 °C 1021.9 hPa ENE 5.6 km/h 5.6 km/h 78% 0 mm WeatherDisplay:10.37 W/m2 OVC
19:14 18.2 °C 14.3 °C 1021.9 hPa NNE 11.1 km/h 11.1 km/h 78% 0 mm WeatherDisplay:10.37 W/m2 OVC
19:19 18.1 °C 14.4 °C 1021.9 hPa NNE 6.4 km/h 6.4 km/h 79% 0 mm WeatherDisplay:10.37 W/m2 OVC
19:24 18.1 °C 14.3 °C 1021.9 hPa NNE 13 km/h 13 km/h 79% 0 mm WeatherDisplay:10.37 W/m2 OVC
19:29 17.9 °C 14.2 °C 1021.9 hPa NNE 13 km/h 13 km/h 79% 0 mm WeatherDisplay:10.37 W/m2 OVC
19:34 17.9 °C 14.4 °C 1022.2 hPa North 13 km/h 13 km/h 80% 0 mm WeatherDisplay:10.37 W/m2 OVC
19:39 17.8 °C 14.5 °C 1022.2 hPa North 5.6 km/h 5.6 km/h 81% 0 mm WeatherDisplay:10.37 W/m2 OVC
19:44 17.7 °C 14.6 °C 1022.2 hPa NE 19.3 km/h 19.3 km/h 82% 0 mm WeatherDisplay:10.37 W/m2 OVC
19:49 17.5 °C 14.6 °C 1022.2 hPa NNE 13 km/h 13 km/h 83% 0 mm WeatherDisplay:10.37 W/m2 OVC
19:54 17.4 °C 14.4 °C 1022.6 hPa North 12.9 km/h 12.9 km/h 83% 0 mm WeatherDisplay:10.37 W/m2 OVC
19:59 17.3 °C 14.6 °C 1022.6 hPa NNE 14.8 km/h 14.8 km/h 84% 0 mm WeatherDisplay:10.37 W/m2 OVC
20:04 17.2 °C 14.4 °C 1022.6 hPa NNE 9.3 km/h 9.3 km/h 84% 0 mm WeatherDisplay:10.37 W/m2 OVC
20:09 17.1 °C 14.4 °C 1022.6 hPa NNE 9.7 km/h 9.7 km/h 84% 0 mm WeatherDisplay:10.37 W/m2 OVC
20:14 17 °C 14.4 °C 1022.6 hPa North 16.1 km/h 16.1 km/h 85% 0 mm WeatherDisplay:10.37 W/m2 OVC
20:20 16.9 °C 14.3 °C 1022.6 hPa NNE 13 km/h 13 km/h 85% 0 mm WeatherDisplay:10.37 W/m2 OVC
20:25 16.8 °C 14.3 °C 1022.6 hPa NNE 13 km/h 13 km/h 85% 0 mm WeatherDisplay:10.37 W/m2 OVC
20:30 16.8 °C 14.2 °C 1022.6 hPa NNE 7.4 km/h 7.4 km/h 85% 0 mm WeatherDisplay:10.37 W/m2 OVC
20:35 16.7 °C 14.4 °C 1022.6 hPa NNE 7.4 km/h 7.4 km/h 86% 0 mm WeatherDisplay:10.37 W/m2 OVC
20:40 16.7 °C 14.3 °C 1022.6 hPa NE 14.5 km/h 14.5 km/h 86% 0 mm WeatherDisplay:10.37 W/m2 OVC
20:45 16.6 °C 14.3 °C 1022.6 hPa North 7.4 km/h 7.4 km/h 86% 0 mm WeatherDisplay:10.37 W/m2 OVC
20:50 16.6 °C 14.2 °C 1022.6 hPa North 9.3 km/h 9.3 km/h 86% 0 mm WeatherDisplay:10.37 W/m2 OVC
20:55 16.6 °C 14.2 °C 1022.9 hPa NE 11.1 km/h 11.1 km/h 86% 0 mm WeatherDisplay:10.37 W/m2 OVC
21:00 16.4 °C 14.1 °C 1022.9 hPa NE 13 km/h 13 km/h 86% 0 mm WeatherDisplay:10.37 W/m2 OVC
21:05 16.4 °C 14.2 °C 1022.9 hPa NNE 13 km/h 13 km/h 87% 0 mm WeatherDisplay:10.37 W/m2 OVC
21:10 16.3 °C 14.2 °C 1022.9 hPa NNE 13 km/h 13 km/h 87% 0 mm WeatherDisplay:10.37 W/m2 OVC
21:15 16.3 °C 14.1 °C 1022.9 hPa NE 9.3 km/h 9.3 km/h 87% 0 mm WeatherDisplay:10.37 W/m2 OVC
21:20 16.2 °C 14.1 °C 1022.9 hPa North 13 km/h 13 km/h 87% 0 mm WeatherDisplay:10.37 W/m2 OVC
21:25 16.1 °C 13.9 °C 1022.9 hPa North 13 km/h 13 km/h 87% 0 mm WeatherDisplay:10.37 W/m2 OVC
21:30 16.1 °C 13.9 °C 1022.9 hPa NNE 9.3 km/h 9.3 km/h 87% 0 mm WeatherDisplay:10.37 W/m2 OVC
21:35 16 °C 14 °C 1022.9 hPa NNE 13 km/h 13 km/h 88% 0 mm WeatherDisplay:10.37 W/m2 OVC
21:40 15.9 °C 13.9 °C 1022.9 hPa NNW 12.9 km/h 12.9 km/h 88% 0 mm WeatherDisplay:10.37 W/m2 OVC
21:45 15.9 °C 13.9 °C 1022.9 hPa NE 13 km/h 13 km/h 88% 0 mm WeatherDisplay:10.37 W/m2 OVC
21:50 15.9 °C 13.9 °C 1022.9 hPa NNE 11.1 km/h 11.1 km/h 88% 0 mm WeatherDisplay:10.37 W/m2 OVC
21:55 15.9 °C 13.9 °C 1023.2 hPa NNE 9.3 km/h 9.3 km/h 88% 0 mm WeatherDisplay:10.37 W/m2 OVC
22:00 15.9 °C 13.9 °C 1023.2 hPa NNE 7.4 km/h 7.4 km/h 88% 0 mm WeatherDisplay:10.37 W/m2 OVC
22:05 15.9 °C 13.9 °C 1023.2 hPa NNE 7.4 km/h 7.4 km/h 88% 0 mm WeatherDisplay:10.37 W/m2 OVC
22:10 15.9 °C 13.9 °C 1023.2 hPa NNE 11.1 km/h 11.1 km/h 88% 0 mm WeatherDisplay:10.37 W/m2 OVC
22:15 15.8 °C 13.8 °C 1023.2 hPa NNE 11.1 km/h 11.1 km/h 88% 0 mm WeatherDisplay:10.37 W/m2 OVC
22:20 15.8 °C 13.8 °C 1023.2 hPa NNE 7.4 km/h 7.4 km/h 88% 0 mm WeatherDisplay:10.37 W/m2 OVC
22:25 15.7 °C 13.7 °C 1022.9 hPa NNE 5.6 km/h 5.6 km/h 88% 0 mm WeatherDisplay:10.37 W/m2 OVC
22:30 15.7 °C 13.8 °C 1023.2 hPa NNE 5.6 km/h 5.6 km/h 89% 0 mm WeatherDisplay:10.37 W/m2 OVC
22:35 15.6 °C 13.8 °C 1023.2 hPa NNE 9.3 km/h 9.3 km/h 89% 0 mm WeatherDisplay:10.37 W/m2 OVC
22:40 15.6 °C 13.8 °C 1023.2 hPa NNE 9.3 km/h 9.3 km/h 89% 0 mm WeatherDisplay:10.37 W/m2 OVC
22:45 15.6 °C 13.7 °C 1022.9 hPa NNE 5.6 km/h 5.6 km/h 89% 0 mm WeatherDisplay:10.37 W/m2 OVC
22:50 15.5 °C 13.7 °C 1023.2 hPa NNE 5.6 km/h 5.6 km/h 89% 0 mm WeatherDisplay:10.37 W/m2 OVC
22:55 15.4 °C 13.7 °C 1023.2 hPa North 6.4 km/h 6.4 km/h 89% 0 mm WeatherDisplay:10.37 W/m2 OVC
23:00 15.5 °C 13.7 °C 1023.2 hPa NE 13 km/h 13 km/h 89% 0 mm WeatherDisplay:10.37 W/m2 OVC
23:05 15.5 °C 13.7 °C 1023.2 hPa North 13 km/h 13 km/h 89% 0 mm WeatherDisplay:10.37 W/m2 OVC
23:10 15.4 °C 13.7 °C 1023.2 hPa NNE 5.6 km/h 5.6 km/h 89% 0 mm WeatherDisplay:10.37 W/m2 OVC
23:15 15.4 °C 13.6 °C 1023.2 hPa NNE 5.6 km/h 5.6 km/h 89% 0 mm WeatherDisplay:10.37 W/m2 OVC
23:20 15.3 °C 13.6 °C 1023.2 hPa NNE 6.4 km/h 6.4 km/h 89% 0 mm WeatherDisplay:10.37 W/m2 OVC
23:23 15.4 °C 13.6 °C 1023.2 hPa NNE 5.6 km/h 5.6 km/h 89% 0 mm WeatherDisplay:10.37 W/m2 OVC
23:28 15.3 °C 13.6 °C 1023.2 hPa NE 5.6 km/h 5.6 km/h 89% 0 mm WeatherDisplay:10.37 W/m2 OVC
23:33 15.3 °C 13.6 °C 1023.2 hPa NE 5.6 km/h 5.6 km/h 89% 0 mm WeatherDisplay:10.37 W/m2 OVC
23:38 15.3 °C 13.6 °C 1023.2 hPa NE 5.6 km/h 5.6 km/h 89% 0 mm WeatherDisplay:10.37 W/m2 OVC
23:43 15.3 °C 13.5 °C 1023.2 hPa NE 5.6 km/h 5.6 km/h 89% 0 mm WeatherDisplay:10.37 W/m2 OVC
23:48 15.2 °C 13.4 °C 1023.6 hPa NE 1.9 km/h   89% 0 mm WeatherDisplay:10.37 W/m2 OVC
23:53 15.1 °C 13.5 °C 1023.2 hPa NE 1.9 km/h 1.9 km/h 90% 0 mm WeatherDisplay:10.37 W/m2 OVC
23:58 15.1 °C 13.4 °C 1023.2 hPa NE 1.9 km/h 1.9 km/h 90% 0 mm WeatherDisplay:10.37 W/m2 OVC
Smyth Weather
Compliments of Weather Underground - 3 mb